Pagina principală
METAR-TAF:

METAR-TAF

Aeroporturi :

Colonel James Jabara Airport

Wichita, Kansas, Statele Unite ale Americii

Latitudine: 37-44-59N, longitudine: 097-13-08W, elevație: 432 m

Observații meteo curente

Raportul a fost făcut în urmă cu 53 de minute, la 00:54 UTC
Vânt 9 kt de la Sud cu rafale de până la 18 kt
Temperatură 28°C
Umiditate 62%
Presiune 1011 hPa
Vizibilitate: 16.1 km
Total acoperit la o înălțime de 6500 picior

METAR: KAAO 190054Z AUTO 17009G18KT 10SM OVC065 28/20 A2986 RMK AO2 SLP096 T02830200

Ora: 20:47 (01:47 UTC)


TAF: lipsă

Observații și prognoze meteo pentru peste 4.000 de aeroporturi (rapoarte METAR și TAF).

Stațiile disponibile sunt reprezentate pe hartă prin puncte galbene și roșii.

Țineți indicatorul mouse-ului pe punctul dorit pentru a vedea denumirea stației.

Apoi, faceți clic pentru a vedea observațiile și prognozele meteorologice.

Pentru a schimba harta: Pentru mărire, faceți clic pe butoanele verzi cu cruce neagră; pentru micșorare, pe butonul verde cu o liniuță; pentru hărți învecinate, pe săgețile verzi.


METAR-TAF: